createdAt,value
2018-08-30T00:02:14.168Z,98775.34
2018-08-30T00:04:44.404Z,98775.19
2018-08-30T00:07:14.234Z,98776.52
2018-08-30T00:09:44.433Z,98789.53
2018-08-30T00:12:12.914Z,98783.48
2018-08-30T00:14:42.124Z,98781.80
2018-08-30T00:17:10.597Z,98789.70
2018-08-30T00:19:39.857Z,98792.11
2018-08-30T00:22:08.598Z,98799.09
2018-08-30T00:24:37.760Z,98790.77
2018-08-30T00:27:08.692Z,98796.56
2018-08-30T00:29:38.361Z,98798.64
2018-08-30T00:32:07.384Z,98802.02
2018-08-30T00:34:36.211Z,98817.69
2018-08-30T00:37:05.514Z,98816.26
2018-08-30T00:39:34.212Z,98816.92
2018-08-30T00:42:02.933Z,98810.98
2018-08-30T00:44:31.394Z,98818.18
2018-08-30T00:47:00.436Z,98821.08
2018-08-30T00:49:29.685Z,98830.32
2018-08-30T00:51:58.875Z,98827.12
2018-08-30T00:54:28.145Z,98828.95
2018-08-30T00:56:56.632Z,98831.08
2018-08-30T00:59:25.426Z,98837.49
2018-08-30T01:01:54.885Z,98837.41
2018-08-30T01:04:23.365Z,98844.11
2018-08-30T01:06:52.206Z,98843.05
2018-08-30T01:09:21.149Z,98843.05
2018-08-30T01:11:50.949Z,98842.01
2018-08-30T01:14:20.042Z,98850.81
2018-08-30T01:16:48.905Z,98847.64
2018-08-30T01:19:18.264Z,98854.48
2018-08-30T01:21:47.053Z,98862.26
2018-08-30T01:24:15.557Z,98861.50
2018-08-30T01:26:44.555Z,98872.55
2018-08-30T01:29:13.251Z,98867.96
2018-08-30T01:31:42.154Z,98873.35
2018-08-30T01:34:13.173Z,98877.74
2018-08-30T01:36:44.331Z,98885.38
2018-08-30T01:39:13.490Z,98883.07
2018-08-30T01:41:44.074Z,98878.86
2018-08-30T01:44:13.772Z,98877.97
2018-08-30T01:46:43.041Z,98882.86
2018-08-30T01:49:11.988Z,98895.09
2018-08-30T01:51:41.257Z,98891.34
2018-08-30T01:54:09.792Z,98898.42
2018-08-30T01:56:38.278Z,98897.43
2018-08-30T01:59:07.191Z,98895.95
2018-08-30T02:01:36.357Z,98895.11
2018-08-30T02:04:05.315Z,98891.73
2018-08-30T02:06:34.103Z,98904.46
2018-08-30T02:09:02.653Z,98900.94
2018-08-30T02:11:31.105Z,98906.38
2018-08-30T02:13:59.974Z,98916.84
2018-08-30T02:16:28.733Z,98901.92
2018-08-30T02:18:57.204Z,98906.14
2018-08-30T02:21:25.697Z,98904.47
2018-08-30T02:23:54.201Z,98908.14
2018-08-30T02:26:22.909Z,98909.18
2018-08-30T02:28:51.904Z,98902.65
2018-08-30T02:31:20.329Z,98907.84
2018-08-30T02:33:48.781Z,98907.83
2018-08-30T02:36:17.221Z,98910.75
2018-08-30T02:38:46.270Z,98918.62
2018-08-30T02:41:14.720Z,98925.92
2018-08-30T02:43:43.166Z,98926.08
2018-08-30T02:46:12.188Z,98928.59
2018-08-30T02:48:41.144Z,98932.44
2018-08-30T02:51:10.638Z,98938.77
2018-08-30T02:53:39.861Z,98932.86
2018-08-30T02:56:09.035Z,98937.80
2018-08-30T02:58:38.027Z,98938.09
2018-08-30T03:01:06.852Z,98936.03
2018-08-30T03:03:36.239Z,98938.16
2018-08-30T03:06:04.753Z,98950.48
2018-08-30T03:08:33.225Z,98950.03
2018-08-30T03:11:02.207Z,98949.69
2018-08-30T03:13:30.701Z,98949.63
2018-08-30T03:15:59.664Z,98954.84
2018-08-30T03:18:28.863Z,98960.39
2018-08-30T03:20:57.703Z,98962.91
2018-08-30T03:23:26.389Z,98963.11
2018-08-30T03:25:54.950Z,98964.19
2018-08-30T03:28:23.393Z,98967.35
2018-08-30T03:30:52.392Z,98968.20
2018-08-30T03:33:20.987Z,98967.69
2018-08-30T03:35:50.228Z,98969.73
2018-08-30T03:38:18.704Z,98966.56
2018-08-30T03:40:47.752Z,98979.85
2018-08-30T03:43:16.205Z,98981.11
2018-08-30T03:45:45.060Z,98977.45
2018-08-30T03:48:13.552Z,98983.03
2018-08-30T03:50:42.251Z,98989.44
2018-08-30T03:53:10.729Z,98988.73
2018-08-30T03:55:39.535Z,98992.10
2018-08-30T03:58:08.196Z,98983.51
2018-08-30T04:00:36.914Z,98985.70
2018-08-30T04:03:05.630Z,98990.72
2018-08-30T04:05:35.036Z,98998.62
2018-08-30T04:08:03.538Z,99000.41
2018-08-30T04:10:32.022Z,99003.82
2018-08-30T04:13:00.876Z,99003.82
2018-08-30T04:15:29.335Z,99006.52
2018-08-30T04:17:58.814Z,99008.32
2018-08-30T04:20:27.505Z,99008.77
2018-08-30T04:22:56.417Z,99013.95
2018-08-30T04:25:25.794Z,99009.31
2018-08-30T04:27:54.261Z,99023.72
2018-08-30T04:30:23.157Z,99020.48
2018-08-30T04:32:51.696Z,99021.89
2018-08-30T04:35:20.172Z,99028.55
2018-08-30T04:37:48.690Z,99027.59
2018-08-30T04:40:17.161Z,99026.81
2018-08-30T04:42:45.774Z,99034.66
2018-08-30T04:45:14.363Z,99036.98
2018-08-30T04:47:43.219Z,99040.14
2018-08-30T04:50:12.676Z,99042.81
2018-08-30T04:52:41.140Z,99048.23
2018-08-30T04:55:10.017Z,99048.86
2018-08-30T04:57:38.508Z,99054.97
2018-08-30T05:00:07.064Z,99057.05
2018-08-30T05:02:35.523Z,99059.69
2018-08-30T05:05:04.374Z,99063.27
2018-08-30T05:07:33.276Z,99075.75
2018-08-30T05:10:02.223Z,99078.20
2018-08-30T05:12:30.961Z,99082.78
2018-08-30T05:14:59.649Z,99084.25
2018-08-30T05:17:28.391Z,99097.47
2018-08-30T05:19:56.944Z,99093.71
2018-08-30T05:22:25.685Z,99089.56
2018-08-30T05:24:54.357Z,99093.92
2018-08-30T05:27:23.049Z,99104.26
2018-08-30T05:29:51.782Z,99110.23
2018-08-30T05:32:20.976Z,99104.13
2018-08-30T05:34:49.407Z,99106.95
2018-08-30T05:37:18.542Z,99112.02
2018-08-30T05:39:47.708Z,99118.73
2018-08-30T05:42:16.187Z,99124.02
2018-08-30T05:44:44.668Z,99122.02
2018-08-30T05:47:13.456Z,99118.53
2018-08-30T05:49:41.902Z,99129.58
2018-08-30T05:52:11.013Z,99126.13
2018-08-30T05:54:39.809Z,99132.73
2018-08-30T05:57:08.808Z,99141.80
2018-08-30T05:59:37.257Z,99150.30
2018-08-30T06:02:05.699Z,99154.80
2018-08-30T06:04:34.184Z,99150.10
2018-08-30T06:07:02.654Z,99150.35
2018-08-30T06:09:31.132Z,99146.91
2018-08-30T06:12:00.742Z,99154.80
2018-08-30T06:14:29.542Z,99155.94
2018-08-30T06:16:58.616Z,99161.09
2018-08-30T06:19:27.748Z,99163.58
2018-08-30T06:21:56.608Z,99158.62
2018-08-30T06:24:25.098Z,99155.33
2018-08-30T06:26:53.621Z,99163.07
2018-08-30T06:29:22.973Z,99161.03
2018-08-30T06:31:51.377Z,99161.13
2018-08-30T06:34:20.184Z,99159.48
2018-08-30T06:36:48.645Z,99172.01
2018-08-30T06:39:17.905Z,99177.22
2018-08-30T06:41:46.392Z,99174.44
2018-08-30T06:44:15.349Z,99172.79
2018-08-30T06:46:44.659Z,99182.28
2018-08-30T06:49:13.529Z,99186.86
2018-08-30T06:51:42.467Z,99184.19
2018-08-30T06:54:11.254Z,99179.23
2018-08-30T06:56:39.762Z,99191.95
2018-08-30T06:59:08.600Z,99195.41
2018-08-30T07:01:37.510Z,99198.47
2018-08-30T07:04:07.206Z,99202.27
2018-08-30T07:06:35.657Z,99201.25
2018-08-30T07:09:07.299Z,99201.46
2018-08-30T07:11:35.747Z,99204.02
2018-08-30T07:14:04.517Z,99208.92
2018-08-30T07:16:32.976Z,99197.80
2018-08-30T07:19:02.712Z,99211.24
2018-08-30T07:21:31.688Z,99218.73
2018-08-30T07:24:00.203Z,99225.35
2018-08-30T07:26:28.676Z,99226.69
2018-08-30T07:28:57.402Z,99224.02
2018-08-30T07:31:25.870Z,99226.09
2018-08-30T07:33:54.736Z,99231.20
2018-08-30T07:36:24.516Z,99232.28
2018-08-30T07:38:53.029Z,99236.36
2018-08-30T07:41:22.052Z,99237.91
2018-08-30T07:43:51.075Z,99248.72
2018-08-30T07:46:19.894Z,99255.73
2018-08-30T07:48:48.761Z,99259.53
2018-08-30T07:51:17.255Z,99262.28
2018-08-30T07:53:46.082Z,99268.33
2018-08-30T07:56:14.764Z,99269.25
2018-08-30T07:58:43.249Z,99279.38
2018-08-30T08:01:12.389Z,99284.45
2018-08-30T08:03:41.139Z,99283.58
2018-08-30T08:06:09.690Z,99283.58
2018-08-30T08:08:38.143Z,99280.34
2018-08-30T08:11:07.133Z,99288.12
2018-08-30T08:13:35.635Z,99291.05
2018-08-30T08:16:04.108Z,99293.51
2018-08-30T08:18:33.241Z,99293.65
2018-08-30T08:21:01.779Z,99293.13
2018-08-30T08:23:30.410Z,99301.47
2018-08-30T08:26:01.144Z,99301.61
2018-08-30T08:28:30.450Z,99306.14
2018-08-30T08:30:59.323Z,99309.66
2018-08-30T08:33:28.813Z,99311.06
2018-08-30T08:35:57.336Z,99311.15
2018-08-30T08:38:26.210Z,99319.20
2018-08-30T08:40:55.667Z,99322.63
2018-08-30T08:43:24.914Z,99324.31
2018-08-30T08:45:54.991Z,99327.94
2018-08-30T08:48:23.488Z,99325.05
2018-08-30T08:50:52.345Z,99335.64
2018-08-30T08:53:21.103Z,99336.38
2018-08-30T08:55:49.596Z,99335.66
2018-08-30T08:58:18.064Z,99332.73
2018-08-30T09:00:47.604Z,99333.93
2018-08-30T09:03:16.333Z,99342.77
2018-08-30T09:05:45.619Z,99338.52
2018-08-30T09:08:15.351Z,99333.75
2018-08-30T09:10:44.501Z,99333.16
2018-08-30T09:13:13.356Z,99332.05
2018-08-30T09:15:41.832Z,99339.01
2018-08-30T09:18:10.295Z,99339.02
2018-08-30T09:20:39.145Z,99341.34
2018-08-30T09:23:07.670Z,99344.77
2018-08-30T09:25:36.465Z,99335.23
2018-08-30T09:28:05.378Z,99345.44
2018-08-30T09:30:33.893Z,99344.62
2018-08-30T09:33:02.745Z,99341.05
2018-08-30T09:35:31.269Z,99346.89
2018-08-30T09:38:00.172Z,99346.41
2018-08-30T09:40:31.151Z,99347.61
2018-08-30T09:43:00.096Z,99342.34
2018-08-30T09:45:29.103Z,99341.62
2018-08-30T09:47:58.147Z,99348.72
2018-08-30T09:50:27.599Z,99342.36
2018-08-30T09:52:56.053Z,99345.38
2018-08-30T09:55:24.868Z,99351.48
2018-08-30T09:57:53.669Z,99346.06
2018-08-30T10:00:27.778Z,99343.13
2018-08-30T10:02:56.253Z,99347.50
2018-08-30T10:05:25.259Z,99346.15
2018-08-30T10:07:54.557Z,99361.41
2018-08-30T10:10:23.331Z,99365.05
2018-08-30T10:12:52.250Z,99359.45
2018-08-30T10:15:21.165Z,99356.09
2018-08-30T10:17:49.735Z,99357.16
2018-08-30T10:20:19.333Z,99359.39
2018-08-30T10:22:48.200Z,99358.48
2018-08-30T10:25:16.732Z,99362.22
2018-08-30T10:27:45.539Z,99358.48
2018-08-30T10:30:14.488Z,99359.73
2018-08-30T10:32:43.256Z,99357.25
2018-08-30T10:35:11.748Z,99363.33
2018-08-30T10:37:40.504Z,99364.22
2018-08-30T10:40:09.387Z,99361.64
2018-08-30T10:42:38.552Z,99362.80
2018-08-30T10:45:07.307Z,99364.95
2018-08-30T10:47:36.154Z,99364.95
2018-08-30T10:50:06.404Z,99362.29
2018-08-30T10:52:35.500Z,99355.77
2018-08-30T10:55:04.029Z,99360.84
2018-08-30T10:57:32.521Z,99364.56
2018-08-30T11:00:01.432Z,99374.55
2018-08-30T11:02:30.270Z,99367.33
2018-08-30T11:04:59.652Z,99366.25
2018-08-30T11:07:28.118Z,99369.49
2018-08-30T11:09:56.969Z,99373.63
2018-08-30T11:12:25.783Z,99367.17
2018-08-30T11:14:55.399Z,99360.16
2018-08-30T11:17:23.907Z,99368.75
2018-08-30T11:19:52.696Z,99372.55
2018-08-30T11:22:21.527Z,99366.99
2018-08-30T11:24:50.241Z,99362.39
2018-08-30T11:27:19.346Z,99376.09
2018-08-30T11:29:48.263Z,99360.66
2018-08-30T11:32:17.128Z,99359.05
2018-08-30T11:34:46.153Z,99355.45
2018-08-30T11:37:16.054Z,99355.81
2018-08-30T11:39:44.856Z,99356.27
2018-08-30T11:42:13.776Z,99359.16
2018-08-30T11:44:42.740Z,99365.88
2018-08-30T11:47:11.242Z,99364.62
2018-08-30T11:49:39.714Z,99358.52
2018-08-30T11:52:08.424Z,99370.89
2018-08-30T11:54:36.871Z,99375.61
2018-08-30T11:57:05.404Z,99374.14
2018-08-30T11:59:34.037Z,99378.58
2018-08-30T12:02:02.571Z,99377.82
2018-08-30T12:04:31.531Z,99372.79
2018-08-30T12:07:01.399Z,99384.11
2018-08-30T12:09:32.892Z,99380.70
2018-08-30T12:12:02.156Z,99390.73
2018-08-30T12:14:30.612Z,99397.23
2018-08-30T12:16:59.073Z,99396.26
2018-08-30T12:19:31.248Z,99397.10
2018-08-30T12:21:59.726Z,99396.23
2018-08-30T12:24:28.425Z,99392.98
2018-08-30T12:26:56.984Z,99392.81
2018-08-30T12:29:25.726Z,99393.50
2018-08-30T12:31:54.213Z,99390.36
2018-08-30T12:34:22.738Z,99387.56
2018-08-30T12:36:51.206Z,99380.31
2018-08-30T12:39:19.667Z,99381.21
2018-08-30T12:41:48.162Z,99370.30
2018-08-30T12:44:16.647Z,99380.09
2018-08-30T12:46:45.294Z,99382.38
2018-08-30T12:49:13.993Z,99377.56
2018-08-30T12:51:43.036Z,99383.94
2018-08-30T12:54:11.429Z,99390.98
2018-08-30T12:56:39.929Z,99400.11
2018-08-30T12:59:14.045Z,99399.25
2018-08-30T13:01:42.931Z,99399.45
2018-08-30T13:04:11.809Z,99411.76
2018-08-30T13:06:50.496Z,99404.34
2018-08-30T13:09:19.664Z,99413.28
2018-08-30T13:11:48.625Z,99412.33
2018-08-30T13:14:17.319Z,99411.24
2018-08-30T13:16:45.805Z,99413.52
2018-08-30T13:19:15.037Z,99410.76
2018-08-30T13:21:44.014Z,99410.27
2018-08-30T13:24:12.677Z,99409.95
2018-08-30T13:26:41.602Z,99414.89
2018-08-30T13:29:10.568Z,99413.64
2018-08-30T13:31:38.918Z,99414.86
2018-08-30T13:34:07.746Z,99412.09
2018-08-30T13:36:36.548Z,99417.82
2018-08-30T13:39:06.953Z,99411.46
2018-08-30T13:41:35.428Z,99408.16
2018-08-30T13:44:04.546Z,99408.54
2018-08-30T13:46:32.923Z,99407.75
2018-08-30T13:49:01.420Z,99410.72
2018-08-30T13:51:30.416Z,99403.28
2018-08-30T13:53:59.533Z,99403.34
2018-08-30T13:56:28.467Z,99407.20
2018-08-30T13:58:57.197Z,99406.86
2018-08-30T14:01:25.663Z,99412.95
2018-08-30T14:03:54.269Z,99406.37
2018-08-30T14:06:22.823Z,99416.50
2018-08-30T14:08:53.163Z,99404.68
2018-08-30T14:11:21.763Z,99409.05
2018-08-30T14:13:50.271Z,99401.30
2018-08-30T14:16:18.792Z,99396.17
2018-08-30T14:18:49.158Z,99388.45
2018-08-30T14:21:18.525Z,99398.38
2018-08-30T14:23:47.039Z,99400.97
2018-08-30T14:26:15.502Z,99403.00
2018-08-30T14:28:44.582Z,99402.11
2018-08-30T14:31:14.276Z,99402.11
2018-08-30T14:33:42.780Z,99405.37
2018-08-30T14:36:11.240Z,99403.17
2018-08-30T14:38:40.070Z,99409.42
2018-08-30T14:41:08.672Z,99401.28
2018-08-30T14:43:38.859Z,99405.73
2018-08-30T14:46:07.722Z,99408.16
2018-08-30T14:48:36.403Z,99393.91
2018-08-30T14:51:05.726Z,99402.84
2018-08-30T14:53:34.462Z,99400.31
2018-08-30T14:56:03.006Z,99402.50
2018-08-30T14:58:31.730Z,99403.77
2018-08-30T15:01:00.171Z,99405.64
2018-08-30T15:03:29.397Z,99406.67
2018-08-30T15:05:58.146Z,99407.03
2018-08-30T15:08:26.847Z,99401.04
2018-08-30T15:10:55.673Z,99397.13
2018-08-30T15:13:24.162Z,99406.17
2018-08-30T15:15:52.629Z,99403.98
2018-08-30T15:18:23.433Z,99407.27
2018-08-30T15:20:52.158Z,99404.91
2018-08-30T15:23:21.207Z,99407.95
2018-08-30T15:25:49.769Z,99413.00
2018-08-30T15:28:18.491Z,99408.36
2018-08-30T15:30:47.670Z,99402.79
2018-08-30T15:33:16.184Z,99403.16
2018-08-30T15:35:44.654Z,99398.59
2018-08-30T15:38:13.133Z,99400.45
2018-08-30T15:40:41.815Z,99406.37
2018-08-30T15:43:10.463Z,99410.39
2018-08-30T15:45:39.701Z,99407.56
2018-08-30T15:48:08.298Z,99401.14
2018-08-30T15:50:36.923Z,99396.56
2018-08-30T15:53:05.436Z,99396.56
2018-08-30T15:55:34.423Z,99399.84
2018-08-30T15:58:03.316Z,99397.91
2018-08-30T16:00:32.358Z,99399.34
2018-08-30T16:03:01.223Z,99404.67
2018-08-30T16:05:29.768Z,99403.16
2018-08-30T16:07:58.822Z,99403.50
2018-08-30T16:10:27.281Z,99404.48
2018-08-30T16:12:56.325Z,99402.12
2018-08-30T16:15:24.806Z,99398.58
2018-08-30T16:17:53.283Z,99394.65
2018-08-30T16:20:21.823Z,99393.09
2018-08-30T16:23:09.351Z,99389.22
2018-08-30T16:25:38.022Z,99390.87
2018-08-30T16:28:07.511Z,99393.91
2018-08-30T16:30:37.300Z,99397.04
2018-08-30T16:33:05.710Z,99394.65
2018-08-30T16:35:35.095Z,99398.23
2018-08-30T16:38:04.062Z,99395.16
2018-08-30T16:40:32.542Z,99392.23
2018-08-30T16:43:01.317Z,99391.52
2018-08-30T16:45:29.810Z,99393.58
2018-08-30T16:47:58.343Z,99396.41
2018-08-30T16:50:27.228Z,99398.42
2018-08-30T16:52:55.728Z,99396.01
2018-08-30T16:55:25.129Z,99401.42
2018-08-30T16:57:53.596Z,99401.31
2018-08-30T17:00:22.104Z,99390.39
2018-08-30T17:02:51.021Z,99395.47
2018-08-30T17:05:19.532Z,99404.84
2018-08-30T17:07:49.799Z,99411.95
2018-08-30T17:10:18.882Z,99414.28
2018-08-30T17:12:47.484Z,99412.70
2018-08-30T17:15:16.335Z,99414.97
2018-08-30T17:17:45.241Z,99418.52
2018-08-30T17:20:24.140Z,99417.38
2018-08-30T17:22:52.962Z,99417.05
2018-08-30T17:25:21.501Z,99415.99
2018-08-30T17:27:50.516Z,99417.75
2018-08-30T17:30:19.117Z,99417.14
2018-08-30T17:32:47.571Z,99416.72
2018-08-30T17:35:16.536Z,99423.19
2018-08-30T17:37:45.314Z,99419.70
2018-08-30T17:40:14.141Z,99426.31
2018-08-30T17:42:42.694Z,99423.91
2018-08-30T17:45:11.509Z,99422.77
2018-08-30T17:47:41.117Z,99423.25
2018-08-30T17:50:10.155Z,99421.41
2018-08-30T17:52:39.506Z,99421.84
2018-08-30T17:55:08.377Z,99440.34
2018-08-30T17:57:36.838Z,99427.19
2018-08-30T18:00:06.671Z,99435.27
2018-08-30T18:02:35.572Z,99432.55
2018-08-30T18:05:05.315Z,99439.27
2018-08-30T18:07:34.083Z,99445.13
2018-08-30T18:10:03.492Z,99444.07
2018-08-30T18:12:35.815Z,99446.41
2018-08-30T18:15:04.633Z,99445.19
2018-08-30T18:17:33.121Z,99445.20
2018-08-30T18:20:02.078Z,99448.12
2018-08-30T18:22:30.798Z,99451.45
2018-08-30T18:24:59.699Z,99453.43
2018-08-30T18:27:29.258Z,99451.45
2018-08-30T18:29:58.086Z,99456.25
2018-08-30T18:32:26.564Z,99458.15
2018-08-30T18:34:55.659Z,99462.72
2018-08-30T18:37:24.099Z,99459.33
2018-08-30T18:39:53.964Z,99465.62
2018-08-30T18:42:22.790Z,99464.97
2018-08-30T18:44:52.007Z,99466.19
2018-08-30T18:47:21.303Z,99469.44
2018-08-30T18:49:51.249Z,99477.73
2018-08-30T18:52:20.037Z,99475.58
2018-08-30T18:54:48.849Z,99483.48
2018-08-30T18:57:17.267Z,99484.98
2018-08-30T18:59:46.661Z,99488.77
2018-08-30T19:02:15.156Z,99493.56
2018-08-30T19:04:45.508Z,99486.72
2018-08-30T19:07:13.954Z,99492.36
2018-08-30T19:09:42.517Z,99500.07
2018-08-30T19:12:11.990Z,99495.45
2018-08-30T19:14:40.736Z,99502.48
2018-08-30T19:17:14.827Z,99498.57
2018-08-30T19:19:44.261Z,99499.56
2018-08-30T19:22:13.097Z,99505.48
2018-08-30T19:24:46.924Z,99504.62
2018-08-30T19:27:16.163Z,99508.33
2018-08-30T19:29:50.577Z,99508.05
2018-08-30T19:32:25.535Z,99512.06
2018-08-30T19:34:54.042Z,99514.39
2018-08-30T19:37:23.111Z,99518.30
2018-08-30T19:39:51.622Z,99517.83
2018-08-30T19:42:21.732Z,99514.38
2018-08-30T19:44:50.183Z,99518.34
2018-08-30T19:47:19.007Z,99517.89
2018-08-30T19:49:47.448Z,99513.39
2018-08-30T19:52:16.741Z,99515.00
2018-08-30T19:54:45.737Z,99515.63
2018-08-30T19:57:14.132Z,99520.72
2018-08-30T19:59:44.090Z,99524.59
2018-08-30T20:02:13.046Z,99515.23
2018-08-30T20:04:41.727Z,99519.37
2018-08-30T20:07:10.253Z,99520.30
2018-08-30T20:09:40.039Z,99523.60
2018-08-30T20:12:08.734Z,99523.38
2018-08-30T20:14:37.535Z,99525.10
2018-08-30T20:17:06.276Z,99523.42
2018-08-30T20:19:34.960Z,99528.17
2018-08-30T20:22:06.256Z,99530.41
2018-08-30T20:24:35.319Z,99520.69
2018-08-30T20:27:03.804Z,99523.63
2018-08-30T20:29:32.620Z,99525.45
2018-08-30T20:32:02.982Z,99527.57
2018-08-30T20:34:31.517Z,99528.19
2018-08-30T20:37:00.790Z,99529.40
2018-08-30T20:39:29.815Z,99531.24
2018-08-30T20:41:58.463Z,99535.97
2018-08-30T20:44:30.365Z,99538.29
2018-08-30T20:46:58.852Z,99542.17
2018-08-30T20:49:27.426Z,99550.94
2018-08-30T20:51:55.916Z,99550.05
2018-08-30T20:54:24.632Z,99549.34
2018-08-30T20:56:57.466Z,99544.26
2018-08-30T20:59:26.418Z,99548.25
2018-08-30T21:01:55.268Z,99545.58
2018-08-30T21:04:24.289Z,99546.39
2018-08-30T21:06:56.465Z,99542.41
2018-08-30T21:09:24.921Z,99549.41
2018-08-30T21:11:53.493Z,99542.26
2018-08-30T21:14:23.529Z,99537.51
2018-08-30T21:16:52.990Z,99538.83
2018-08-30T21:19:22.028Z,99538.94
2018-08-30T21:21:51.744Z,99538.30
2018-08-30T21:24:20.437Z,99538.81
2018-08-30T21:26:49.258Z,99537.34
2018-08-30T21:29:18.123Z,99539.05
2018-08-30T21:31:46.603Z,99535.87
2018-08-30T21:34:15.546Z,99534.54
2018-08-30T21:36:44.342Z,99534.78
2018-08-30T21:39:12.814Z,99533.45
2018-08-30T21:41:42.425Z,99535.58
2018-08-30T21:44:10.893Z,99538.52
2018-08-30T21:46:39.574Z,99542.00
2018-08-30T21:49:08.125Z,99541.84
2018-08-30T21:51:38.304Z,99540.91
2018-08-30T21:54:06.873Z,99547.55
2018-08-30T21:56:35.346Z,99544.84
2018-08-30T21:59:04.477Z,99554.86
2018-08-30T22:01:34.332Z,99551.02
2018-08-30T22:04:04.933Z,99550.78
2018-08-30T22:06:33.399Z,99545.84
2018-08-30T22:09:03.609Z,99542.66
2018-08-30T22:11:32.472Z,99542.66
2018-08-30T22:14:02.145Z,99547.87
2018-08-30T22:16:31.167Z,99544.31
2018-08-30T22:18:59.817Z,99547.34
2018-08-30T22:21:29.757Z,99551.22
2018-08-30T22:23:58.475Z,99554.36
2018-08-30T22:26:26.971Z,99550.00
2018-08-30T22:28:56.666Z,99549.69
2018-08-30T22:31:25.909Z,99551.58
2018-08-30T22:33:54.402Z,99547.54
2018-08-30T22:36:23.546Z,99551.91
2018-08-30T22:38:52.629Z,99554.09
2018-08-30T22:41:22.090Z,99559.58
2018-08-30T22:43:50.574Z,99561.89
2018-08-30T22:46:20.136Z,99563.58
2018-08-30T22:48:49.243Z,99565.89
2018-08-30T22:51:18.603Z,99573.01
2018-08-30T22:53:48.119Z,99568.47
2018-08-30T22:56:17.305Z,99566.34
2018-08-30T22:58:46.838Z,99568.19
2018-08-30T23:01:17.924Z,99569.27
2018-08-30T23:03:46.424Z,99568.16
2018-08-30T23:06:15.129Z,99568.28
2018-08-30T23:08:43.620Z,99566.64
2018-08-30T23:11:12.087Z,99562.77
2018-08-30T23:13:40.543Z,99566.58
2018-08-30T23:16:09.048Z,99562.05
2018-08-30T23:18:37.538Z,99562.83
2018-08-30T23:21:07.007Z,99562.34
2018-08-30T23:23:36.384Z,99568.77
2018-08-30T23:26:04.978Z,99560.59
2018-08-30T23:28:33.471Z,99561.67
2018-08-30T23:31:01.947Z,99565.53
2018-08-30T23:33:30.417Z,99559.63
2018-08-30T23:35:58.864Z,99564.47
2018-08-30T23:38:27.368Z,99561.02
2018-08-30T23:40:56.060Z,99562.23
2018-08-30T23:43:24.553Z,99561.13
2018-08-30T23:45:54.659Z,99564.64
2018-08-30T23:48:24.292Z,99563.38
2018-08-30T23:50:53.186Z,99564.92
2018-08-30T23:53:22.935Z,99565.02
2018-08-30T23:55:52.409Z,99555.33
2018-08-30T23:58:32.312Z,99561.64
